Time;durP1;ratioP1;P1;durP2;ratioP2;P2;SDS_P1;SDS_P2;PMS_P1;PMS_P2;Temp;Humidity;BMP_temperature;BMP_pressure;BME280_temperature;BME280_humidity;BME280_pressure;Samples;Min_cycle;Max_cycle;Signal;HPM_P1;HPM_P2
2021/06/15 00:00:20;;;;;;;8.40;3.00;;;19.10;99.90;;;;;;3517530;40;20075;-79
2021/06/15 00:02:48;;;;;;;7.93;2.63;;;19.10;99.90;;;;;;3529047;40;20326;-79
2021/06/15 00:05:19;;;;;;;5.57;2.80;;;19.10;99.90;;;;;;3513437;40;20292;-79
2021/06/15 00:07:51;;;;;;;8.75;3.15;;;19.10;99.90;;;;;;3526494;40;20087;-79
2021/06/15 00:10:23;;;;;;;8.77;2.88;;;19.10;99.90;;;;;;3528715;40;20075;-81
2021/06/15 00:12:52;;;;;;;6.75;2.92;;;19.00;99.90;;;;;;3520087;40;20035;-78
2021/06/15 00:15:23;;;;;;;6.47;2.78;;;19.00;99.90;;;;;;3510946;40;20087;-80
2021/06/15 00:17:54;;;;;;;9.65;3.38;;;19.00;99.90;;;;;;3529858;40;20075;-79
2021/06/15 00:20:23;;;;;;;6.63;3.17;;;19.00;99.90;;;;;;3527510;40;20657;-79
2021/06/15 00:22:52;;;;;;;6.18;2.90;;;18.90;99.90;;;;;;3520843;40;20072;-79
2021/06/15 00:25:20;;;;;;;5.60;2.72;;;18.90;99.90;;;;;;3522302;40;20076;-79
2021/06/15 00:27:48;;;;;;;6.45;2.95;;;18.90;99.90;;;;;;3523911;40;20072;-80
2021/06/15 00:30:18;;;;;;;6.15;2.88;;;19.00;99.90;;;;;;3530980;40;20083;-79
2021/06/15 00:32:50;;;;;;;6.30;3.10;;;18.80;99.90;;;;;;3514174;40;20082;-79
2021/06/15 00:35:18;;;;;;;7.15;3.67;;;18.70;99.90;;;;;;3514923;40;20076;-79
2021/06/15 00:37:49;;;;;;;7.07;3.58;;;18.70;99.90;;;;;;3522062;40;20076;-80
2021/06/15 00:40:18;;;;;;;;;;;18.60;99.90;;;;;;3520080;40;20091;-79
2021/06/15 00:42:46;;;;;;;6.18;3.22;;;18.50;99.90;;;;;;3527121;40;19974;-80
2021/06/15 00:45:18;;;;;;;6.43;3.30;;;18.40;99.90;;;;;;3523303;40;20083;-81
2021/06/15 00:47:50;;;;;;;7.25;3.22;;;18.40;99.90;;;;;;3520192;40;20072;-79
2021/06/15 00:50:19;;;;;;;6.40;2.65;;;18.40;99.90;;;;;;3521138;40;20075;-78
2021/06/15 00:52:53;;;;;;;5.47;2.90;;;18.30;99.90;;;;;;3522234;40;20091;-79
2021/06/15 00:55:22;;;;;;;5.18;2.67;;;18.20;99.90;;;;;;3509978;40;20075;-80
2021/06/15 00:57:51;;;;;;;6.55;3.45;;;18.20;99.90;;;;;;3521106;40;20083;-79
2021/06/15 01:00:20;;;;;;;7.93;3.28;;;18.20;99.90;;;;;;3511112;40;20332;-79
2021/06/15 01:02:48;;;;;;;8.32;3.83;;;18.40;99.90;;;;;;3513633;40;20068;-80
2021/06/15 01:05:19;;;;;;;9.18;3.33;;;18.30;99.90;;;;;;3524629;40;20310;-79
2021/06/15 01:07:58;;;;;;;8.50;3.05;;;18.30;99.90;;;;;;3522699;40;20296;-79
2021/06/15 01:10:40;;;;;;;6.88;3.08;;;18.30;99.90;;;;;;3521140;40;20364;-79
2021/06/15 01:13:20;;;;;;;7.43;3.53;;;18.20;99.90;;;;;;3512342;40;20085;-80
2021/06/15 01:15:58;;;;;;;7.05;3.60;;;18.20;99.90;;;;;;3508328;40;20067;-79
2021/06/15 01:18:28;;;;;;;8.53;3.20;;;18.20;99.90;;;;;;3519117;40;20085;-80
2021/06/15 01:21:00;;;;;;;7.75;3.50;;;18.20;99.90;;;;;;3512706;40;20334;-80
2021/06/15 01:23:55;;;;;;;8.65;3.65;;;18.20;99.90;;;;;;3517049;40;20075;-80
2021/06/15 01:26:54;;;;;;;8.45;3.45;;;18.10;99.90;;;;;;3517044;40;20099;-79
2021/06/15 01:29:29;;;;;;;6.93;3.67;;;17.90;99.90;;;;;;3522765;40;20071;-79
2021/06/15 01:32:07;;;;;;;10.40;3.30;;;17.90;99.90;;;;;;3527969;40;20065;-80
2021/06/15 01:34:42;;;;;;;11.07;3.17;;;17.90;99.90;;;;;;3518402;40;20320;-81
2021/06/15 01:37:16;;;;;;;8.05;3.60;;;17.90;99.90;;;;;;3527415;40;20163;-79
2021/06/15 01:39:50;;;;;;;9.75;3.42;;;17.80;99.90;;;;;;3530876;40;20091;-79
2021/06/15 01:42:32;;;;;;;8.15;3.25;;;17.80;99.90;;;;;;3514096;40;20091;-81
2021/06/15 01:45:07;;;;;;;7.60;3.30;;;17.90;99.90;;;;;;3517198;40;20305;-80
2021/06/15 01:47:37;;;;;;;8.73;3.50;;;17.90;99.90;;;;;;3526339;40;20079;-79
2021/06/15 01:50:09;;;;;;;7.03;3.40;;;17.90;99.90;;;;;;3523925;40;20075;-80
2021/06/15 01:52:39;;;;;;;7.15;3.13;;;17.80;99.90;;;;;;3518972;40;20090;-78
2021/06/15 01:55:09;;;;;;;11.43;3.83;;;17.70;99.90;;;;;;3514701;40;20090;-78
2021/06/15 01:57:49;;;;;;;7.47;3.35;;;17.60;99.90;;;;;;3514907;40;20072;-79
2021/06/15 02:00:20;;;;;;;7.72;3.60;;;17.50;99.90;;;;;;3519943;40;20110;-81
2021/06/15 02:02:50;;;;;;;17.80;4.10;;;17.50;99.90;;;;;;3522029;40;20068;-79
2021/06/15 02:05:33;;;;;;;11.05;3.65;;;17.40;99.90;;;;;;3512050;40;20067;-80
2021/06/15 02:08:04;;;;;;;8.48;4.10;;;17.60;99.90;;;;;;3512513;40;20304;-78
2021/06/15 02:10:38;;;;;;;11.45;4.55;;;18.00;99.90;;;;;;3519145;40;20063;-79
2021/06/15 02:13:31;;;;;;;6.63;3.70;;;18.00;99.90;;;;;;3516143;40;20043;-80
2021/06/15 02:16:29;;;;;;;8.15;4.10;;;17.90;99.90;;;;;;3517029;40;20071;-80
2021/06/15 02:19:21;;;;;;;8.63;3.50;;;17.80;99.90;;;;;;3526327;40;20340;-83
2021/06/15 02:22:01;;;;;;;11.82;3.90;;;17.70;99.90;;;;;;3521707;40;20302;-80
2021/06/15 02:24:36;;;;;;;14.57;4.28;;;17.70;99.90;;;;;;3513059;40;20322;-81
2021/06/15 02:27:08;;;;;;;11.35;4.25;;;17.70;99.90;;;;;;3517910;40;20087;-80
2021/06/15 02:29:37;;;;;;;11.25;4.28;;;17.70;99.90;;;;;;3505735;40;20095;-83
2021/06/15 02:32:10;;;;;;;9.77;4.35;;;17.50;99.90;;;;;;3523165;40;20071;-80
2021/06/15 02:34:44;;;;;;;10.45;4.40;;;17.40;99.90;;;;;;3510405;40;20031;-81
2021/06/15 02:37:13;;;;;;;9.65;4.30;;;17.40;99.90;;;;;;3522333;40;20310;-82
2021/06/15 02:39:42;;;;;;;9.57;4.20;;;17.40;99.90;;;;;;3521109;40;20075;-80
2021/06/15 02:42:13;;;;;;;6.32;3.75;;;17.40;99.90;;;;;;3504471;40;20323;-81
2021/06/15 02:44:48;;;;;;;8.13;3.92;;;17.30;99.90;;;;;;3519554;40;20291;-80
2021/06/15 02:47:20;;;;;;;12.40;4.60;;;17.20;99.90;;;;;;3511007;40;20383;-80
2021/06/15 02:49:52;;;;;;;12.05;4.38;;;17.20;99.90;;;;;;3526142;40;20111;-80
2021/06/15 02:52:30;;;;;;;10.45;4.35;;;17.20;99.90;;;;;;3520979;40;20064;-82
2021/06/15 02:55:01;;;;;;;10.43;3.97;;;17.10;99.90;;;;;;3517698;40;20095;-82
2021/06/15 02:57:30;;;;;;;17.85;5.25;;;17.10;99.90;;;;;;3535367;40;20079;-80
2021/06/15 02:59:59;;;;;;;8.10;4.03;;;17.10;99.90;;;;;;3533281;40;20031;-79
2021/06/15 03:02:28;;;;;;;11.03;4.20;;;17.10;99.90;;;;;;3531380;40;20382;-81
2021/06/15 03:04:57;;;;;;;11.80;4.35;;;17.00;99.90;;;;;;3514982;40;20330;-78
2021/06/15 03:07:25;;;;;;;9.40;4.18;;;17.00;99.90;;;;;;3526536;40;20064;-79
2021/06/15 03:10:01;;;;;;;8.82;4.30;;;17.00;99.90;;;;;;3512244;40;20087;-79
2021/06/15 03:12:36;;;;;;;9.20;3.88;;;17.10;99.90;;;;;;3520463;40;20099;-79
2021/06/15 03:15:08;;;;;;;14.90;3.97;;;17.10;99.90;;;;;;3525749;40;20111;-79
2021/06/15 03:17:43;;;;;;;9.95;4.15;;;17.10;99.90;;;;;;3514186;40;20128;-79
2021/06/15 03:20:13;;;;;;;9.05;3.85;;;17.20;99.90;;;;;;3523468;40;20084;-80
2021/06/15 03:22:51;;;;;;;11.15;6.13;;;17.10;99.90;;;;;;3522067;40;20094;-80
2021/06/15 03:25:25;;;;;;;10.75;3.80;;;17.10;99.90;;;;;;3523615;40;20091;-80
2021/06/15 03:27:57;;;;;;;9.85;4.50;;;17.10;99.90;;;;;;3518080;40;20084;-80
2021/06/15 03:30:27;;;;;;;14.70;4.40;;;17.10;99.90;;;;;;3517129;40;20075;-81
2021/06/15 03:33:00;;;;;;;12.90;4.05;;;17.20;99.90;;;;;;3522026;40;20080;-80
2021/06/15 03:35:32;;;;;;;10.88;4.03;;;17.20;99.90;;;;;;3522544;40;20078;-81
2021/06/15 03:38:02;;;;;;;13.48;4.68;;;17.30;99.90;;;;;;3522105;40;20075;-80
2021/06/15 03:40:39;;;;;;;10.57;4.10;;;17.30;99.90;;;;;;3521824;40;20115;-80
2021/06/15 03:43:14;;;;;;;9.38;4.00;;;17.20;99.90;;;;;;3520607;40;20080;-80
2021/06/15 03:45:49;;;;;;;10.65;4.18;;;17.30;99.90;;;;;;3522242;40;20079;-78
2021/06/15 03:48:21;;;;;;;9.82;4.50;;;17.30;99.90;;;;;;3514363;40;20087;-79
2021/06/15 03:50:51;;;;;;;9.00;4.35;;;17.40;99.90;;;;;;3507791;40;20335;-78
2021/06/15 03:53:23;;;;;;;10.52;4.00;;;17.40;99.90;;;;;;3509660;40;20094;-80
2021/06/15 03:55:54;;;;;;;10.50;3.90;;;17.40;99.90;;;;;;3520820;40;20087;-79
2021/06/15 03:58:22;;;;;;;7.53;4.70;;;17.40;99.90;;;;;;3521718;40;20091;-82
2021/06/15 04:00:50;;;;;;;15.30;4.70;;;17.50;99.90;;;;;;3519948;40;20339;-78
2021/06/15 04:03:20;;;;;;;11.63;3.97;;;17.50;99.90;;;;;;3520064;40;20075;-79
2021/06/15 04:05:53;;;;;;;8.88;3.95;;;17.50;99.90;;;;;;3508402;40;20094;-81
2021/06/15 04:08:22;;;;;;;9.95;4.90;;;17.50;99.90;;;;;;3526920;40;20317;-78
2021/06/15 04:10:54;;;;;;;18.67;4.25;;;17.50;99.90;;;;;;3529069;40;20075;-79
2021/06/15 04:13:25;;;;;;;10.43;3.88;;;17.50;99.90;;;;;;3529780;40;20071;-80
2021/06/15 04:15:53;;;;;;;8.38;4.30;;;17.60;99.90;;;;;;3521562;40;20067;-80
2021/06/15 04:18:25;;;;;;;13.02;4.32;;;17.70;99.90;;;;;;3507178;40;20147;-79
2021/06/15 04:20:56;;;;;;;10.35;4.43;;;17.70;99.90;;;;;;3524778;40;20095;-77
2021/06/15 04:23:30;;;;;;;10.23;4.22;;;17.80;99.90;;;;;;3516528;40;20343;-77
2021/06/15 04:25:58;;;;;;;10.55;4.55;;;17.90;99.90;;;;;;3520744;40;20091;-78
2021/06/15 04:28:31;;;;;;;11.95;4.47;;;17.90;99.90;;;;;;3519624;40;20071;-80
2021/06/15 04:31:01;;;;;;;9.85;4.65;;;17.90;99.90;;;;;;3522664;40;20075;-79
2021/06/15 04:33:31;;;;;;;8.05;4.25;;;18.00;99.90;;;;;;3520875;40;20302;-80
2021/06/15 04:36:06;;;;;;;7.63;4.22;;;18.10;99.90;;;;;;3528691;40;20075;-80
2021/06/15 04:38:39;;;;;;;12.88;4.80;;;18.20;99.90;;;;;;3511489;40;20091;-80
2021/06/15 04:41:10;;;;;;;12.38;4.35;;;18.30;99.90;;;;;;3522692;40;20084;-83
2021/06/15 04:43:42;;;;;;;11.02;5.13;;;18.30;99.90;;;;;;3522361;40;20071;-81
2021/06/15 04:46:20;;;;;;;11.90;5.07;;;18.40;99.90;;;;;;3511336;40;20135;-79
2021/06/15 04:48:51;;;;;;;11.27;4.40;;;18.30;99.90;;;;;;3518670;40;20040;-79
2021/06/15 04:51:21;;;;;;;12.50;4.50;;;18.40;99.90;;;;;;3524725;40;20095;-77
2021/06/15 04:53:58;;;;;;;10.25;4.20;;;18.60;99.90;;;;;;3513667;40;20083;-80
2021/06/15 04:56:27;;;;;;;8.18;4.07;;;18.60;99.90;;;;;;3524893;40;20072;-78
2021/06/15 04:58:56;;;;;;;8.55;3.95;;;18.70;99.90;;;;;;3521679;40;20094;-79
2021/06/15 05:01:24;;;;;;;11.65;5.15;;;18.80;99.90;;;;;;3530576;40;20071;-81
2021/06/15 05:03:56;;;;;;;12.27;5.05;;;18.90;99.90;;;;;;3521017;40;20090;-80
2021/06/15 05:06:25;;;;;;;10.45;4.35;;;19.00;99.90;;;;;;3521392;40;20079;-80
2021/06/15 05:08:54;;;;;;;;;;;19.10;99.90;;;;;;3522405;40;20063;-80
2021/06/15 05:11:24;;;;;;;10.10;4.15;;;19.20;99.90;;;;;;3527686;40;19986;-81
2021/06/15 05:13:59;;;;;;;9.90;4.43;;;19.30;99.90;;;;;;3511898;40;20084;-81
2021/06/15 05:16:33;;;;;;;10.90;4.07;;;19.30;99.90;;;;;;3532349;40;20091;-82
2021/06/15 05:19:02;;;;;;;15.32;4.75;;;19.10;99.90;;;;;;3518445;40;20310;-81
2021/06/15 05:21:40;;;;;;;11.50;4.00;;;19.10;99.90;;;;;;3523510;40;20092;-82
2021/06/15 05:24:11;;;;;;;;;;;19.10;99.90;;;;;;3514112;40;20308;-87
2021/06/15 05:26:39;;;;;;;;;;;19.30;99.90;;;;;;3519675;40;19971;-81
2021/06/15 05:29:07;;;;;;;13.40;4.20;;;19.30;99.90;;;;;;3530248;40;19953;-82
2021/06/15 05:31:35;;;;;;;10.67;3.80;;;19.30;99.90;;;;;;3517907;40;20091;-81
2021/06/15 05:34:04;;;;;;;11.07;4.18;;;19.40;99.90;;;;;;3522223;40;20080;-82
2021/06/15 05:36:34;;;;;;;11.75;4.88;;;19.40;99.90;;;;;;3515047;40;20091;-80
2021/06/15 05:39:02;;;;;;;8.35;3.92;;;19.50;99.90;;;;;;3510531;40;20068;-80
2021/06/15 05:41:29;;;;;;;11.50;4.03;;;19.50;99.90;;;;;;3520424;40;20619;-79
2021/06/15 05:44:00;;;;;;;10.48;3.83;;;19.60;99.90;;;;;;3532648;40;20615;-81
2021/06/15 05:46:28;;;;;;;11.77;4.57;;;19.60;99.90;;;;;;3530605;40;20308;-80
2021/06/15 05:48:59;;;;;;;11.98;4.38;;;19.80;99.90;;;;;;3521019;40;20091;-78
2021/06/15 05:51:36;;;;;;;23.60;5.45;;;19.90;99.90;;;;;;3519435;40;20095;-81
2021/06/15 05:54:09;;;;;;;12.75;4.40;;;19.80;99.90;;;;;;3514654;40;20099;-84
2021/06/15 05:56:37;;;;;;;12.25;4.53;;;19.70;99.90;;;;;;3519909;40;20091;-84
2021/06/15 05:59:05;;;;;;;9.20;4.50;;;19.70;99.90;;;;;;3508774;40;20391;-82
2021/06/15 06:01:34;;;;;;;10.50;4.70;;;19.70;99.90;;;;;;3513202;40;20087;-85
2021/06/15 06:04:07;;;;;;;9.38;3.30;;;19.80;99.90;;;;;;3643737;23;20051;31
2021/06/15 06:09:24;;;;;;;18.05;5.38;;;20.20;99.90;;;;;;3513076;40;20084;-82
2021/06/15 06:11:53;;;;;;;9.95;4.50;;;20.30;99.90;;;;;;3509927;40;20076;-84
2021/06/15 06:14:24;;;;;;;9.80;3.88;;;20.50;99.90;;;;;;3587206;23;20055;-88
2021/06/15 06:16:52;;;;;;;15.50;4.40;;;20.60;99.90;;;;;;3525772;40;20110;-87
2021/06/15 06:19:22;;;;;;;14.95;4.25;;;20.70;99.90;;;;;;3530954;40;20707;-83
2021/06/15 06:21:55;;;;;;;8.15;3.83;;;20.90;99.90;;;;;;3519707;40;20301;-83
2021/06/15 06:24:23;;;;;;;11.20;4.30;;;20.90;99.90;;;;;;3521837;40;20096;-83
2021/06/15 06:26:52;;;;;;;9.68;4.30;;;21.10;99.90;;;;;;3535988;40;20324;-83
2021/06/15 06:29:20;;;;;;;16.25;4.68;;;21.30;99.90;;;;;;3531748;40;20071;-86
2021/06/15 06:31:48;;;;;;;;;;;21.30;99.90;;;;;;3530399;40;20083;-81
2021/06/15 06:34:16;;;;;;;12.32;5.28;;;21.40;99.90;;;;;;3531488;40;19986;-84
2021/06/15 06:36:47;;;;;;;9.85;3.97;;;21.50;99.90;;;;;;3637477;23;20063;-88
2021/06/15 06:39:24;;;;;;;9.23;3.78;;;21.50;99.90;;;;;;3662324;23;20058;-85
2021/06/15 06:41:58;;;;;;;11.98;3.88;;;21.50;99.90;;;;;;3606456;23;20046;-83
2021/06/15 06:44:27;;;;;;;10.05;3.90;;;21.70;99.90;;;;;;3497110;41;20068;-82
2021/06/15 06:46:54;;;;;;;23.08;4.10;;;21.90;99.90;;;;;;3505020;41;20092;-86
2021/06/15 06:49:22;;;;;;;13.68;3.90;;;22.10;99.90;;;;;;3504860;41;20079;-83
2021/06/15 06:51:59;;;;;;;9.25;3.55;;;22.00;99.90;;;;;;3484531;41;20099;-82
2021/06/15 06:54:29;;;;;;;8.48;3.60;;;22.00;99.90;;;;;;3498249;41;20354;-84
2021/06/15 06:56:57;;;;;;;8.57;3.47;;;22.10;99.90;;;;;;3502660;41;20038;-84
2021/06/15 06:59:27;;;;;;;11.13;3.63;;;22.20;99.90;;;;;;3494604;41;20099;-81
2021/06/15 07:01:54;;;;;;;8.55;3.45;;;22.30;99.20;;;;;;3502101;40;20143;-81
2021/06/15 07:04:22;;;;;;;12.82;3.63;;;22.40;98.90;;;;;;3494469;40;20079;-83
2021/06/15 07:06:50;;;;;;;9.85;4.00;;;22.60;98.50;;;;;;3511066;40;20076;-80
2021/06/15 07:09:17;;;;;;;8.53;3.63;;;22.60;98.30;;;;;;3489074;41;20057;-83
2021/06/15 07:11:46;;;;;;;9.50;3.58;;;22.80;97.90;;;;;;3491382;41;20324;-83
2021/06/15 07:14:17;;;;;;;15.70;3.33;;;22.90;97.60;;;;;;3501519;40;20131;-82
2021/06/15 07:16:47;;;;;;;7.47;3.70;;;23.00;97.60;;;;;;3499108;41;20254;-81
2021/06/15 07:19:15;;;;;;;11.50;4.03;;;23.00;97.20;;;;;;3501973;41;20071;-81
2021/06/15 07:21:45;;;;;;;13.35;3.78;;;23.10;97.00;;;;;;3496453;41;20132;-81
2021/06/15 07:24:12;;;;;;;11.05;4.03;;;23.10;96.80;;;;;;3507347;41;20084;-82
2021/06/15 07:26:42;;;;;;;10.32;3.78;;;23.20;96.90;;;;;;3495885;41;20088;-82
2021/06/15 07:29:12;;;;;;;6.57;3.60;;;23.20;97.10;;;;;;3504426;41;20321;-80
2021/06/15 07:31:40;;;;;;;11.68;3.35;;;23.30;96.90;;;;;;3496483;41;20091;-80
2021/06/15 07:34:10;;;;;;;9.38;3.97;;;23.30;97.00;;;;;;3497766;41;20064;-81
2021/06/15 07:36:38;;;;;;;12.15;4.60;;;23.40;96.60;;;;;;3499539;41;20088;-79
2021/06/15 07:39:06;;;;;;;10.45;4.10;;;23.60;96.50;;;;;;3497162;41;20068;-81
2021/06/15 07:41:34;;;;;;;10.18;3.20;;;23.80;96.10;;;;;;3503559;41;20076;-82
2021/06/15 07:44:01;;;;;;;8.48;3.17;;;24.10;95.80;;;;;;3523030;40;20068;-84
2021/06/15 07:46:35;;;;;;;8.10;3.70;;;24.30;94.90;;;;;;3519558;40;20099;-80
2021/06/15 07:49:03;;;;;;;10.77;3.85;;;24.60;94.00;;;;;;3523318;40;20086;-80
2021/06/15 07:51:31;;;;;;;7.00;3.08;;;24.70;93.60;;;;;;3523772;40;20075;-81
2021/06/15 07:54:01;;;;;;;9.45;3.60;;;24.90;93.10;;;;;;3523102;40;20416;-80
2021/06/15 07:56:29;;;;;;;8.18;3.45;;;25.10;92.30;;;;;;3517893;40;20079;-80
2021/06/15 07:58:59;;;;;;;7.43;3.17;;;25.20;91.80;;;;;;3518450;40;20084;-81
2021/06/15 08:01:30;;;;;;;8.77;3.88;;;25.30;91.90;;;;;;3523530;40;20095;-81
2021/06/15 08:04:04;;;;;;;10.73;3.88;;;25.30;92.00;;;;;;3515806;40;20083;-80
2021/06/15 08:06:34;;;;;;;11.23;2.92;;;25.40;91.90;;;;;;3517408;40;20097;-80
2021/06/15 08:09:02;;;;;;;8.40;3.70;;;25.60;91.90;;;;;;3523701;40;20075;-81
2021/06/15 08:11:30;;;;;;;12.02;4.20;;;25.80;91.50;;;;;;3523081;40;20067;-81
2021/06/15 08:13:58;;;;;;;12.75;4.13;;;26.00;91.00;;;;;;3516329;40;20067;-81
2021/06/15 08:16:28;;;;;;;9.52;3.80;;;26.00;90.70;;;;;;3508791;41;20297;-80
2021/06/15 08:18:56;;;;;;;8.27;3.50;;;26.10;90.60;;;;;;3514948;40;20091;-81
2021/06/15 08:21:27;;;;;;;12.10;4.32;;;26.20;90.40;;;;;;3520204;40;20118;-81
2021/06/15 08:23:55;;;;;;;9.65;4.20;;;26.10;89.80;;;;;;3524908;40;20419;-81
2021/06/15 08:26:27;;;;;;;15.00;4.35;;;25.70;90.60;;;;;;3513519;40;20064;-81
2021/06/15 08:28:57;;;;;;;8.65;4.13;;;25.40;91.00;;;;;;3520764;40;20072;-81
2021/06/15 08:31:25;;;;;;;10.40;4.22;;;25.30;91.40;;;;;;3524512;40;20091;-81
2021/06/15 08:33:53;;;;;;;7.95;3.88;;;25.30;91.60;;;;;;3512166;40;20290;-81
2021/06/15 08:36:20;;;;;;;9.13;3.63;;;25.40;91.40;;;;;;3520850;40;20101;-81
2021/06/15 08:38:50;;;;;;;9.85;3.95;;;25.60;91.00;;;;;;3491223;40;20079;-81
2021/06/15 08:41:18;;;;;;;17.02;4.28;;;26.10;90.00;;;;;;3512742;40;20516;-82
2021/06/15 08:43:46;;;;;;;10.85;4.40;;;26.30;87.80;;;;;;3518640;40;20084;-81
2021/06/15 08:46:18;;;;;;;7.35;4.20;;;26.40;87.00;;;;;;3518605;40;20075;-81
2021/06/15 08:48:48;;;;;;;9.18;4.45;;;26.10;86.90;;;;;;3513213;40;20392;-81
2021/06/15 08:51:19;;;;;;;14.75;4.30;;;26.40;86.40;;;;;;3512842;40;20050;-81
2021/06/15 08:53:52;;;;;;;9.77;3.97;;;26.60;85.80;;;;;;3511258;40;20039;-80
2021/06/15 08:56:23;;;;;;;11.18;4.20;;;26.80;85.60;;;;;;3513584;40;20039;-80
2021/06/15 08:59:00;;;;;;;9.25;4.38;;;27.10;84.00;;;;;;3522845;40;20312;-81
2021/06/15 09:01:28;;;;;;;12.02;4.70;;;27.20;83.50;;;;;;3514750;40;20407;-81
2021/06/15 09:03:56;;;;;;;7.13;3.45;;;27.40;82.60;;;;;;3512798;40;20420;-79
2021/06/15 09:06:23;;;;;;;11.43;4.53;;;27.60;82.10;;;;;;3510515;41;20076;-80
2021/06/15 09:08:57;;;;;;;6.97;3.80;;;27.70;81.70;;;;;;3521069;40;20079;-82
2021/06/15 09:11:28;;;;;;;9.77;4.13;;;27.70;81.10;;;;;;3519567;40;20384;-82
2021/06/15 09:13:57;;;;;;;14.60;4.72;;;27.80;79.60;;;;;;3508696;40;20314;-80
2021/06/15 09:16:27;;;;;;;11.68;3.90;;;27.80;79.60;;;;;;3513113;40;20052;-81
2021/06/15 09:18:58;;;;;;;7.60;3.67;;;27.80;79.70;;;;;;3522854;40;20079;-81
2021/06/15 09:21:41;;;;;;;10.45;4.80;;;28.00;79.60;;;;;;3514951;40;20072;-80
2021/06/15 09:24:14;;;;;;;14.82;4.95;;;28.10;78.70;;;;;;3523585;40;20080;-81
2021/06/15 09:27:00;;;;;;;10.10;4.20;;;28.10;78.40;;;;;;3525084;40;20082;-82
2021/06/15 09:29:55;;;;;;;7.80;4.40;;;28.20;77.80;;;;;;3525523;40;20091;-82
2021/06/15 09:32:29;;;;;;;10.73;4.28;;;28.30;75.70;;;;;;3514616;40;20076;-82
2021/06/15 09:34:59;;;;;;;10.18;4.10;;;28.40;74.60;;;;;;3523087;40;20098;-80
2021/06/15 09:37:33;;;;;;;11.95;5.15;;;28.40;74.30;;;;;;3525054;40;20067;-81
2021/06/15 09:40:08;;;;;;;9.43;5.07;;;28.50;73.40;;;;;;3533966;40;20333;-80
2021/06/15 09:42:53;;;;;;;10.10;4.75;;;28.20;73.40;;;;;;3527470;40;20076;-81
2021/06/15 09:45:22;;;;;;;9.70;4.32;;;28.00;73.60;;;;;;3528652;40;20092;-82
2021/06/15 09:47:50;;;;;;;13.07;5.85;;;28.10;74.60;;;;;;3526376;40;20064;-80
2021/06/15 09:50:22;;;;;;;10.15;4.55;;;28.30;74.30;;;;;;3522839;40;20134;-80
2021/06/15 09:52:49;;;;;;;10.25;4.80;;;28.70;73.80;;;;;;3520459;40;20296;-82
2021/06/15 09:55:21;;;;;;;11.45;5.25;;;28.90;73.00;;;;;;3525515;40;20091;-81
2021/06/15 09:57:51;;;;;;;9.70;4.65;;;29.30;71.50;;;;;;3526419;40;20092;-84
2021/06/15 10:00:22;;;;;;;11.93;5.00;;;29.30;71.50;;;;;;3531336;40;20071;-82
2021/06/15 10:02:55;;;;;;;12.10;4.63;;;29.30;69.70;;;;;;3528974;40;20436;-80
2021/06/15 10:05:31;;;;;;;12.75;5.60;;;29.40;69.90;;;;;;3524430;40;20080;-79
2021/06/15 10:08:03;;;;;;;8.88;4.63;;;29.40;68.50;;;;;;3521887;40;20091;-80
2021/06/15 10:10:36;;;;;;;11.55;4.38;;;29.40;67.60;;;;;;3513113;40;20075;-79
2021/06/15 10:13:09;;;;;;;9.70;4.45;;;29.40;67.50;;;;;;3524962;40;20080;-79
2021/06/15 10:15:40;;;;;;;11.98;4.32;;;29.40;65.50;;;;;;3525416;40;20098;-79
2021/06/15 10:18:13;;;;;;;7.00;4.15;;;29.70;65.90;;;;;;3523716;40;20286;-79
2021/06/15 10:20:41;;;;;;;10.18;4.95;;;30.40;65.60;;;;;;3511989;40;20106;-80
2021/06/15 10:23:09;;;;;;;11.00;4.65;;;31.10;63.80;;;;;;3526509;40;20083;-81
2021/06/15 10:25:38;;;;;;;10.38;5.93;;;31.50;63.50;;;;;;3523693;40;20320;-81
2021/06/15 10:28:12;;;;;;;11.23;5.03;;;31.80;62.80;;;;;;3518983;40;20116;-81
2021/06/15 10:30:42;;;;;;;14.15;6.90;;;32.20;62.00;;;;;;3525331;40;20064;-81
2021/06/15 10:33:15;;;;;;;16.73;5.35;;;32.50;61.10;;;;;;3530107;40;20713;-80
2021/06/15 10:35:48;;;;;;;13.60;5.65;;;32.50;60.50;;;;;;3526370;40;20296;-81
2021/06/15 10:38:19;;;;;;;9.20;4.85;;;32.80;60.00;;;;;;3527330;40;20394;-81
2021/06/15 10:41:04;;;;;;;16.35;4.50;;;32.60;59.60;;;;;;3519628;40;20130;-81
2021/06/15 10:43:44;;;;;;;13.23;5.13;;;32.40;59.00;;;;;;3524621;40;20434;-81
2021/06/15 10:46:31;;;;;;;11.90;5.03;;;32.20;58.20;;;;;;3521693;40;20092;-81
2021/06/15 10:49:01;;;;;;;13.95;5.28;;;32.20;58.80;;;;;;3519871;40;20072;-80
2021/06/15 10:51:44;;;;;;;14.30;5.43;;;32.10;58.30;;;;;;3514301;40;20088;-81
2021/06/15 10:54:38;;;;;;;8.75;4.90;;;32.10;57.30;;;;;;3526485;40;20071;-81
2021/06/15 10:57:31;;;;;;;8.73;4.80;;;31.90;56.40;;;;;;3523595;40;20095;-81
2021/06/15 11:00:12;;;;;;;8.43;4.25;;;32.20;55.30;;;;;;3534873;40;20099;-80
2021/06/15 11:02:41;;;;;;;9.48;5.00;;;33.60;54.70;;;;;;3511465;40;20076;-81
2021/06/15 11:05:37;;;;;;;11.75;4.95;;;34.90;52.80;;;;;;3515781;40;20110;-82
2021/06/15 11:08:18;;;;;;;10.18;5.18;;;35.20;51.60;;;;;;3502068;40;20369;-82
2021/06/15 11:10:48;;;;;;;11.52;5.05;;;34.60;51.60;;;;;;3522258;40;20092;-80
2021/06/15 11:13:19;;;;;;;9.98;4.78;;;34.40;51.90;;;;;;3520188;40;20067;-80
2021/06/15 11:16:00;;;;;;;7.93;4.40;;;34.10;51.20;;;;;;3510210;40;20068;-82
2021/06/15 11:18:29;;;;;;;7.88;3.58;;;34.30;51.40;;;;;;3524064;40;20092;-80
2021/06/15 11:21:20;;;;;;;7.03;3.80;;;35.00;50.90;;;;;;3526549;40;20064;-84
2021/06/15 11:23:49;;;;;;;10.88;3.95;;;35.60;49.60;;;;;;3521045;40;20091;-81
2021/06/15 11:26:17;;;;;;;;;;;36.10;48.80;;;;;;3519672;40;20083;-81
2021/06/15 11:28:58;;;;;;;13.50;4.68;;;36.20;47.90;;;;;;3523061;40;20005;-81
2021/06/15 11:31:36;;;;;;;9.13;4.28;;;36.50;46.70;;;;;;3515799;40;20327;-81
2021/06/15 11:34:26;;;;;;;10.70;3.85;;;36.40;45.90;;;;;;3518943;40;20079;-81
2021/06/15 11:36:58;;;;;;;9.73;4.22;;;36.40;45.20;;;;;;3504310;40;20403;-81
2021/06/15 11:39:38;;;;;;;7.57;4.13;;;36.30;45.30;;;;;;3522012;40;20307;-82
2021/06/15 11:42:24;;;;;;;8.40;3.47;;;35.80;46.40;;;;;;3510669;40;20091;-82
2021/06/15 11:44:56;;;;;;;10.82;4.15;;;35.30;47.60;;;;;;3516754;40;20083;-82
2021/06/15 11:47:32;;;;;;;10.43;5.13;;;35.40;46.40;;;;;;3528440;40;20106;-81
2021/06/15 11:50:23;;;;;;;7.80;3.75;;;35.60;47.00;;;;;;3524493;40;20361;-82
2021/06/15 11:53:00;;;;;;;9.15;3.70;;;35.30;45.60;;;;;;3522352;40;20123;-81
2021/06/15 11:55:36;;;;;;;9.68;3.80;;;34.90;46.40;;;;;;3534432;40;20098;-81
2021/06/15 11:58:10;;;;;;;10.05;4.47;;;34.20;47.70;;;;;;3535619;40;20078;-80
2021/06/15 12:00:44;;;;;;;13.07;4.10;;;34.30;48.10;;;;;;3532355;40;20072;-81
2021/06/15 12:03:17;;;;;;;8.73;3.50;;;34.70;47.30;;;;;;3531312;40;20091;-81
2021/06/15 12:05:48;;;;;;;8.57;3.97;;;35.10;47.00;;;;;;3529867;40;20063;-80
2021/06/15 12:08:20;;;;;;;7.70;3.70;;;35.60;48.20;;;;;;3529735;40;20087;-83
2021/06/15 12:10:49;;;;;;;9.55;4.05;;;36.10;46.80;;;;;;3528798;40;20070;-83
2021/06/15 12:13:20;;;;;;;10.43;4.13;;;36.80;46.50;;;;;;3512379;40;20083;-82
2021/06/15 12:15:54;;;;;;;8.77;3.80;;;37.30;45.70;;;;;;3526313;40;20403;-82
2021/06/15 12:18:37;;;;;;;7.13;3.33;;;37.30;45.50;;;;;;3524169;40;20027;-82
2021/06/15 12:21:07;;;;;;;9.35;3.72;;;37.20;44.90;;;;;;3525359;40;20083;-82
2021/06/15 12:23:42;;;;;;;6.90;4.00;;;37.20;44.60;;;;;;3537069;40;20071;-81
2021/06/15 12:26:14;;;;;;;9.35;3.30;;;37.80;44.50;;;;;;3528923;40;20068;-81
2021/06/15 12:28:44;;;;;;;8.60;3.85;;;37.80;44.60;;;;;;3524866;40;20087;-81
2021/06/15 12:31:22;;;;;;;6.90;4.32;;;37.20;44.60;;;;;;3512361;40;20075;-82
2021/06/15 12:33:51;;;;;;;9.35;4.20;;;36.80;44.80;;;;;;3523018;40;20342;-81
2021/06/15 12:36:22;;;;;;;7.72;4.40;;;36.70;45.10;;;;;;3538547;40;20063;-81
2021/06/15 12:38:54;;;;;;;8.30;4.05;;;37.10;44.60;;;;;;3526488;40;20091;-80
2021/06/15 12:41:26;;;;;;;15.20;4.15;;;37.70;44.00;;;;;;3532071;40;20055;-81
2021/06/15 12:43:54;;;;;;;8.85;3.95;;;38.50;43.50;;;;;;3498435;40;20132;-82
2021/06/15 12:46:29;;;;;;;10.65;3.67;;;38.70;42.50;;;;;;3528363;40;20411;-81
2021/06/15 12:49:03;;;;;;;14.50;3.80;;;38.90;42.20;;;;;;3504988;41;20088;-81
2021/06/15 12:51:32;;;;;;;11.55;4.05;;;39.10;42.20;;;;;;3525298;40;20071;-81
2021/06/15 12:54:15;;;;;;;10.45;3.65;;;39.60;41.70;;;;;;3526987;40;20095;-81
2021/06/15 12:56:53;;;;;;;8.15;4.35;;;39.80;41.20;;;;;;3515644;40;20079;-81
2021/06/15 12:59:21;;;;;;;9.18;4.13;;;39.80;41.00;;;;;;3523821;40;20048;-82
2021/06/15 13:01:53;;;;;;;8.55;3.83;;;39.80;41.20;;;;;;3519293;40;20099;-82
2021/06/15 13:04:22;;;;;;;7.80;3.40;;;39.60;41.10;;;;;;3515539;40;20375;-83
2021/06/15 13:06:52;;;;;;;9.68;3.58;;;39.90;41.00;;;;;;3515420;40;20083;-82
2021/06/15 13:09:22;;;;;;;6.75;3.45;;;40.30;40.60;;;;;;3526462;40;20083;-82
2021/06/15 13:12:06;;;;;;;8.20;3.50;;;40.70;39.60;;;;;;3522744;40;20076;-82